Time;durP1;ratioP1;P1;durP2;ratioP2;P2;SDS_P1;SDS_P2;PMS_P1;PMS_P2;Temp;Humidity;BMP_temperature;BMP_pressure;BME280_temperature;BME280_humidity;BME280_pressure;Samples;Min_cycle;Max_cycle;Signal;HPM_P1;HPM_P2
2023/01/10 00:02:15;;;;;;;14.07;3.70;;;6.40;99.90;;;;;;5084769;28;20044;-71
2023/01/10 00:04:40;;;;;;;16.27;4.22;;;6.40;99.90;;;;;;5087233;28;20074;-71
2023/01/10 00:07:06;;;;;;;13.95;3.72;;;6.40;99.90;;;;;;5089755;28;20390;-72
2023/01/10 00:09:31;;;;;;;17.10;3.78;;;6.40;99.90;;;;;;5092492;28;20051;-72
2023/01/10 00:14:41;;;;;;;17.35;3.85;;;6.40;99.90;;;;;;5086670;28;20055;-71
2023/01/10 00:17:07;;;;;;;14.25;4.20;;;6.30;99.90;;;;;;5081492;28;20054;-71
2023/01/10 00:19:32;;;;;;;15.57;4.43;;;6.30;99.90;;;;;;5093053;28;20040;-71
2023/01/10 00:22:08;;;;;;;16.80;4.75;;;6.30;99.90;;;;;;5090724;28;20441;-72
2023/01/10 00:24:34;;;;;;;15.00;4.40;;;6.30;99.90;;;;;;5090191;28;20058;-72
2023/01/10 00:27:01;;;;;;;17.52;4.72;;;6.30;99.90;;;;;;5088164;28;20135;-72
2023/01/10 00:29:28;;;;;;;;;;;6.30;99.90;;;;;;5091903;28;20083;-72
2023/01/10 00:31:54;;;;;;;14.93;4.00;;;6.20;99.90;;;;;;5110264;28;19919;-72
2023/01/10 00:34:20;;;;;;;16.08;4.22;;;6.30;99.90;;;;;;5090949;28;20792;-72
2023/01/10 00:36:46;;;;;;;16.30;4.00;;;6.20;99.90;;;;;;5086221;28;20047;-72
2023/01/10 00:39:13;;;;;;;17.55;4.13;;;6.20;99.90;;;;;;5090781;28;20059;-73
2023/01/10 00:44:25;;;;;;;18.42;4.82;;;6.20;99.90;;;;;;5086529;28;20490;-72
2023/01/10 00:46:51;;;;;;;17.75;4.78;;;6.10;99.90;;;;;;5091690;28;20122;-72
2023/01/10 00:49:17;;;;;;;18.85;4.57;;;6.10;99.90;;;;;;5088703;28;20055;-71
2023/01/10 00:51:44;;;;;;;20.45;4.97;;;6.00;99.90;;;;;;5091915;28;20032;-72
2023/01/10 00:54:10;;;;;;;20.27;4.87;;;6.00;99.90;;;;;;5085561;28;20056;-72
2023/01/10 00:56:36;;;;;;;21.63;5.13;;;6.00;99.90;;;;;;5084334;28;20040;-70
2023/01/10 00:59:03;;;;;;;18.10;4.50;;;6.00;99.90;;;;;;5085668;28;20040;-71
2023/01/10 01:01:28;;;;;;;19.45;4.70;;;6.00;99.90;;;;;;5089136;28;20111;-71
2023/01/10 01:03:54;;;;;;;20.45;5.45;;;6.00;99.90;;;;;;5091412;28;20064;-71
2023/01/10 01:06:19;;;;;;;17.40;4.63;;;6.00;99.90;;;;;;5090598;28;20047;-72
2023/01/10 01:08:45;;;;;;;16.15;4.72;;;6.00;99.90;;;;;;5093525;28;20040;-71
2023/01/10 01:11:11;;;;;;;19.02;4.60;;;6.00;99.90;;;;;;5092078;28;20111;-71
2023/01/10 01:13:37;;;;;;;16.58;5.15;;;6.10;99.90;;;;;;5088902;28;20051;-71
2023/01/10 01:16:03;;;;;;;19.52;4.57;;;6.10;99.90;;;;;;5090600;28;20542;-71
2023/01/10 01:18:29;;;;;;;21.80;5.47;;;6.10;99.90;;;;;;5091437;28;20044;-71
2023/01/10 01:20:56;;;;;;;17.60;4.47;;;6.10;99.90;;;;;;5085924;28;20479;-71
2023/01/10 01:23:23;;;;;;;22.23;4.75;;;6.10;99.90;;;;;;5086794;28;20154;-72
2023/01/10 01:25:53;;;;;;;20.17;5.00;;;6.20;99.90;;;;;;5089430;28;20447;-72
2023/01/10 01:28:20;;;;;;;19.42;4.95;;;6.20;99.90;;;;;;5091115;28;20298;-72
2023/01/10 01:30:46;;;;;;;14.25;4.32;;;6.10;99.90;;;;;;5105635;28;20173;-72
2023/01/10 01:33:12;;;;;;;20.27;5.18;;;6.20;99.90;;;;;;5085854;28;20052;-72
2023/01/10 01:35:42;;;;;;;22.88;5.25;;;6.20;99.90;;;;;;5086946;28;20446;-72
2023/01/10 01:38:08;;;;;;;17.35;4.47;;;6.20;99.90;;;;;;5090286;28;20392;-72
2023/01/10 01:40:35;;;;;;;20.98;4.88;;;6.20;99.90;;;;;;5090571;28;20073;-72
2023/01/10 01:43:00;;;;;;;20.17;4.63;;;6.20;99.90;;;;;;5089333;28;20132;-72
2023/01/10 01:45:38;;;;;;;18.63;5.20;;;6.20;99.90;;;;;;5088145;28;20074;-72
2023/01/10 01:48:19;;;;;;;18.45;5.03;;;6.20;99.90;;;;;;5089748;28;20040;-72
2023/01/10 01:51:15;;;;;;;20.50;5.28;;;6.20;99.90;;;;;;5089175;28;20093;-72
2023/01/10 01:53:56;;;;;;;20.08;5.60;;;6.20;99.90;;;;;;5088563;28;20090;-72
2023/01/10 01:56:28;;;;;;;21.40;4.75;;;6.20;99.90;;;;;;5085123;28;20036;-73
2023/01/10 01:59:01;;;;;;;16.40;5.20;;;6.20;99.90;;;;;;5091115;28;20058;-72
2023/01/10 02:01:29;;;;;;;19.48;4.93;;;6.20;99.90;;;;;;5083209;28;20387;-72
2023/01/10 02:04:00;;;;;;;22.00;5.15;;;6.20;99.90;;;;;;5087783;28;20045;-72
2023/01/10 02:06:26;;;;;;;18.52;4.93;;;6.20;99.90;;;;;;5088364;28;20036;-72
2023/01/10 02:09:02;;;;;;;19.83;5.30;;;6.20;99.90;;;;;;5089837;28;20404;-72
2023/01/10 02:11:29;;;;;;;20.52;5.35;;;6.20;99.90;;;;;;5083756;28;20055;-72
2023/01/10 02:13:56;;;;;;;18.17;5.15;;;6.20;99.90;;;;;;5089058;28;20074;-72
2023/01/10 02:16:22;;;;;;;;;;;6.20;99.90;;;;;;5084962;28;20395;-72
2023/01/10 02:18:47;;;;;;;17.52;4.40;;;6.10;99.90;;;;;;5092017;28;19924;-72
2023/01/10 02:21:37;;;;;;;16.23;5.05;;;6.00;99.90;;;;;;5090924;28;20028;-72
2023/01/10 02:24:43;;;;;;;24.30;5.40;;;6.00;99.90;;;;;;5089781;28;20067;-72
2023/01/10 02:27:23;;;;;;;19.80;5.45;;;6.00;99.90;;;;;;5086522;28;20047;-72
2023/01/10 02:29:49;;;;;;;16.38;5.00;;;6.00;99.90;;;;;;5088160;28;20044;-72
2023/01/10 02:32:39;;;;;;;19.38;5.38;;;5.80;99.90;;;;;;5086907;28;20039;-72
2023/01/10 02:35:48;;;;;;;18.42;5.40;;;5.90;99.90;;;;;;5084202;28;20068;-72
2023/01/10 02:38:23;;;;;;;18.52;5.30;;;5.90;99.90;;;;;;5068582;28;20095;-72
2023/01/10 02:41:35;;;;;;;15.85;4.82;;;5.80;99.90;;;;;;5088426;28;20050;-72
2023/01/10 02:44:13;;;;;;;17.23;4.75;;;5.80;99.90;;;;;;5081012;28;20059;-72
2023/01/10 02:46:40;;;;;;;21.13;5.55;;;5.80;99.90;;;;;;5088005;28;20048;-72
2023/01/10 02:49:05;;;;;;;16.77;5.25;;;5.80;99.90;;;;;;5088738;28;20047;-72
2023/01/10 02:51:34;;;;;;;21.63;5.15;;;5.80;99.90;;;;;;5084908;28;20037;-72
2023/01/10 02:54:11;;;;;;;19.70;5.45;;;5.80;99.90;;;;;;5090155;28;20110;-72
2023/01/10 02:57:05;;;;;;;16.65;4.57;;;5.80;99.90;;;;;;5086477;28;20529;-72
2023/01/10 02:59:48;;;;;;;25.65;4.95;;;5.80;99.90;;;;;;5087367;28;20475;-72
2023/01/10 03:02:31;;;;;;;18.35;4.60;;;5.70;99.90;;;;;;5086228;28;20047;-72
2023/01/10 03:05:26;;;;;;;19.15;4.35;;;5.70;99.90;;;;;;5080476;28;20085;-72
2023/01/10 03:08:22;;;;;;;17.05;4.65;;;5.70;99.90;;;;;;5088558;28;20044;-72
2023/01/10 03:10:58;;;;;;;19.77;4.57;;;5.60;99.90;;;;;;5084101;28;20044;-72
2023/01/10 03:13:47;;;;;;;20.63;5.47;;;5.60;99.90;;;;;;5087029;28;20135;-72
2023/01/10 03:16:16;;;;;;;18.67;4.35;;;5.60;99.90;;;;;;5086272;28;20548;-72
2023/01/10 03:19:06;;;;;;;21.23;4.88;;;5.60;99.90;;;;;;5087787;28;20490;-72
2023/01/10 03:21:32;;;;;;;20.52;4.35;;;5.60;99.90;;;;;;5083765;28;20063;-72
2023/01/10 03:24:07;;;;;;;19.50;4.30;;;5.60;99.90;;;;;;5088174;28;20036;-72
2023/01/10 03:26:41;;;;;;;18.13;4.63;;;5.60;99.90;;;;;;5088471;28;20416;-72
2023/01/10 03:29:10;;;;;;;21.38;4.53;;;5.60;99.90;;;;;;5091540;28;20040;-72
2023/01/10 03:31:48;;;;;;;20.38;3.97;;;5.60;99.90;;;;;;5089556;28;20044;-72
2023/01/10 03:34:14;;;;;;;19.38;4.30;;;5.60;99.90;;;;;;5086761;28;20044;-72
2023/01/10 03:36:51;;;;;;;19.63;4.47;;;5.60;99.90;;;;;;5085812;28;20105;-72
2023/01/10 03:39:24;;;;;;;15.48;4.10;;;5.60;99.90;;;;;;5089763;28;20131;-72
2023/01/10 03:42:10;;;;;;;21.15;4.85;;;5.60;99.90;;;;;;5088999;28;20048;-73
2023/01/10 03:45:00;;;;;;;17.58;4.47;;;5.60;99.90;;;;;;5087086;28;20028;-72
2023/01/10 03:47:44;;;;;;;18.50;4.15;;;5.60;99.90;;;;;;5071210;28;20044;-72
2023/01/10 03:50:17;;;;;;;26.15;4.57;;;5.60;99.90;;;;;;5089107;28;20039;-72
2023/01/10 03:52:43;;;;;;;19.00;4.97;;;5.60;99.90;;;;;;5086521;28;20058;-72
2023/01/10 03:55:10;;;;;;;19.75;4.00;;;5.60;99.90;;;;;;5082527;28;20766;-72
2023/01/10 03:57:36;;;;;;;22.33;4.95;;;5.70;99.90;;;;;;5087276;28;20048;-72
2023/01/10 04:00:03;;;;;;;17.13;3.80;;;5.60;99.90;;;;;;5085677;28;20044;-72
2023/01/10 04:02:31;;;;;;;18.90;4.13;;;5.70;99.90;;;;;;5071227;28;20392;-72
2023/01/10 04:04:57;;;;;;;16.73;4.35;;;5.60;99.90;;;;;;5086623;28;20052;-72
2023/01/10 04:07:24;;;;;;;17.17;4.07;;;5.70;99.90;;;;;;5083696;28;20161;-72
2023/01/10 04:09:50;;;;;;;16.75;3.88;;;5.70;99.90;;;;;;5088698;28;20055;-72
2023/01/10 04:12:16;;;;;;;14.55;3.85;;;5.70;99.90;;;;;;5091236;28;20097;-72
2023/01/10 04:14:45;;;;;;;20.95;4.65;;;5.70;99.90;;;;;;5085241;28;20347;-72
2023/01/10 04:17:12;;;;;;;15.23;4.10;;;5.70;99.90;;;;;;5088262;28;20123;-73
2023/01/10 04:19:37;;;;;;;17.10;3.60;;;5.70;99.90;;;;;;5088416;28;20052;-70
2023/01/10 04:22:04;;;;;;;17.13;4.03;;;5.70;99.90;;;;;;5086857;28;20308;-71
2023/01/10 04:24:30;;;;;;;15.93;3.47;;;5.60;99.90;;;;;;5086515;28;20050;-71
2023/01/10 04:26:56;;;;;;;18.63;4.03;;;5.70;99.90;;;;;;5089825;28;20395;-70
2023/01/10 04:29:22;;;;;;;15.43;3.97;;;5.70;99.90;;;;;;5079568;28;20054;-71
2023/01/10 04:31:48;;;;;;;20.55;4.25;;;5.70;99.90;;;;;;5089549;28;20043;-70
2023/01/10 04:34:13;;;;;;;15.93;4.22;;;5.70;99.90;;;;;;5088307;28;20596;-72
2023/01/10 04:36:39;;;;;;;18.13;3.95;;;5.70;99.90;;;;;;5090490;28;20097;-71
2023/01/10 04:39:06;;;;;;;12.90;3.83;;;5.70;99.90;;;;;;5089940;28;20051;-71
2023/01/10 04:41:31;;;;;;;18.23;4.63;;;5.70;99.90;;;;;;5091608;28;20069;-72
2023/01/10 04:43:57;;;;;;;18.80;4.78;;;5.80;99.90;;;;;;5092036;28;20630;-71
2023/01/10 04:46:23;;;;;;;15.55;4.20;;;5.80;99.90;;;;;;5091151;28;20047;-71
2023/01/10 04:48:48;;;;;;;20.85;5.22;;;5.80;99.90;;;;;;5089419;28;20471;-71
2023/01/10 04:51:14;;;;;;;15.13;3.85;;;5.80;99.90;;;;;;5088230;28;20055;-72
2023/01/10 04:53:40;;;;;;;21.20;4.78;;;5.90;99.90;;;;;;5087178;28;20056;-71
2023/01/10 04:56:08;;;;;;;22.67;5.57;;;5.90;99.90;;;;;;5083407;28;20143;-72
2023/01/10 04:58:35;;;;;;;16.58;4.63;;;5.90;99.90;;;;;;5086473;28;20043;-72
2023/01/10 05:01:09;;;;;;;19.90;4.60;;;5.90;99.90;;;;;;5092095;28;20040;-71
2023/01/10 05:03:36;;;;;;;23.75;5.68;;;5.90;99.90;;;;;;5089553;28;20039;-72
2023/01/10 05:06:01;;;;;;;20.40;5.20;;;5.90;99.90;;;;;;5088040;28;20047;-71
2023/01/10 05:08:27;;;;;;;19.92;4.88;;;5.90;99.90;;;;;;5082997;28;20333;-71
2023/01/10 05:10:53;;;;;;;19.65;4.63;;;5.90;99.90;;;;;;5089197;28;20040;-71
2023/01/10 05:13:19;;;;;;;17.77;4.65;;;5.90;99.90;;;;;;5091411;28;20064;-72
2023/01/10 05:15:44;;;;;;;18.65;5.18;;;5.90;99.90;;;;;;5090621;28;20040;-71
2023/01/10 05:18:10;;;;;;;19.05;4.80;;;5.90;99.90;;;;;;5089173;28;20051;-72
2023/01/10 05:20:35;;;;;;;19.13;4.95;;;5.90;99.90;;;;;;5089639;28;20390;-72
2023/01/10 05:23:01;;;;;;;27.20;6.32;;;6.00;99.90;;;;;;5088381;28;20184;-72
2023/01/10 05:25:27;;;;;;;22.15;5.65;;;6.00;99.90;;;;;;5078817;28;20048;-72
2023/01/10 05:27:53;;;;;;;20.65;4.80;;;5.90;99.90;;;;;;5088076;28;20071;-72
2023/01/10 05:30:20;;;;;;;21.30;5.22;;;6.00;99.90;;;;;;5088289;28;20132;-72
2023/01/10 05:32:46;;;;;;;17.95;4.50;;;6.00;99.90;;;;;;5088850;28;20498;-72
2023/01/10 05:35:11;;;;;;;21.42;5.25;;;6.00;99.90;;;;;;5086584;28;20117;-71
2023/01/10 05:37:37;;;;;;;22.52;4.80;;;5.90;99.90;;;;;;5087706;28;20125;-71
2023/01/10 05:40:04;;;;;;;21.83;4.82;;;6.00;99.90;;;;;;5090145;28;20044;-72
2023/01/10 05:42:29;;;;;;;26.27;5.28;;;5.90;99.90;;;;;;5088579;28;20032;-71
2023/01/10 05:44:55;;;;;;;22.90;4.43;;;6.00;99.90;;;;;;5090003;28;20047;-72
2023/01/10 05:47:21;;;;;;;20.95;4.45;;;6.00;99.90;;;;;;5090649;28;20119;-72
2023/01/10 05:49:46;;;;;;;22.60;4.90;;;6.00;99.90;;;;;;5090510;28;20115;-71
2023/01/10 05:52:12;;;;;;;21.92;4.43;;;5.90;99.90;;;;;;5086709;28;20597;-71
2023/01/10 05:54:37;;;;;;;21.55;4.88;;;6.00;99.90;;;;;;5082438;28;20488;-72
2023/01/10 05:57:03;;;;;;;20.00;4.72;;;6.00;99.90;;;;;;5092530;28;20391;-72
2023/01/10 05:59:29;;;;;;;19.90;4.43;;;6.00;99.90;;;;;;5090726;28;20161;-72
2023/01/10 06:01:54;;;;;;;23.80;4.97;;;5.90;99.90;;;;;;5087660;28;20033;-71
2023/01/10 06:04:20;;;;;;;24.40;4.85;;;6.00;99.90;;;;;;5087731;28;20475;-71
2023/01/10 06:06:46;;;;;;;20.08;4.68;;;5.90;99.90;;;;;;5091324;28;20063;-71
2023/01/10 06:09:11;;;;;;;21.50;5.10;;;6.00;99.90;;;;;;5088528;28;20052;-71
2023/01/10 06:11:37;;;;;;;20.90;5.55;;;6.00;99.90;;;;;;5089896;28;20036;-71
2023/01/10 06:14:06;;;;;;;21.75;5.60;;;6.00;99.90;;;;;;5084506;28;20032;-71
2023/01/10 06:16:31;;;;;;;18.67;4.80;;;6.00;99.90;;;;;;5082820;28;20119;-71
2023/01/10 06:18:57;;;;;;;22.63;5.28;;;6.00;99.90;;;;;;5089147;28;20123;-72
2023/01/10 06:21:22;;;;;;;19.00;4.47;;;6.00;99.90;;;;;;5085805;28;20039;-72
2023/01/10 06:23:48;;;;;;;22.60;4.90;;;6.00;99.90;;;;;;5082473;28;20453;-72
2023/01/10 06:26:14;;;;;;;19.67;4.97;;;6.10;99.90;;;;;;5087893;28;20072;-72
2023/01/10 06:28:42;;;;;;;24.90;5.10;;;6.10;99.90;;;;;;5091358;28;20486;-72
2023/01/10 06:31:08;;;;;;;22.42;4.35;;;6.10;99.90;;;;;;5087912;28;20036;-72
2023/01/10 06:33:34;;;;;;;22.13;5.28;;;6.10;99.90;;;;;;5080968;28;20570;-71
2023/01/10 06:36:00;;;;;;;16.48;4.65;;;6.20;99.90;;;;;;5085881;28;20516;-72
2023/01/10 06:38:25;;;;;;;20.73;5.53;;;6.10;99.90;;;;;;5081547;28;20123;-72
2023/01/10 06:40:51;;;;;;;22.45;4.88;;;6.10;99.90;;;;;;5088648;28;20039;-72
2023/01/10 06:43:17;;;;;;;21.23;5.45;;;6.10;99.90;;;;;;5078213;28;20116;-72
2023/01/10 06:45:42;;;;;;;17.98;5.13;;;6.10;99.90;;;;;;5084889;28;20540;-72
2023/01/10 06:48:08;;;;;;;18.25;5.30;;;6.00;99.90;;;;;;5093833;28;20051;-72
2023/01/10 06:50:34;;;;;;;22.15;5.13;;;6.10;99.90;;;;;;5085474;28;20028;-72
2023/01/10 06:53:02;;;;;;;21.80;5.07;;;6.10;99.90;;;;;;5086385;28;20139;-72
2023/01/10 06:55:28;;;;;;;19.20;4.88;;;6.00;99.90;;;;;;5085989;28;20077;-72
2023/01/10 06:57:59;;;;;;;19.92;5.65;;;6.00;99.90;;;;;;5088101;28;20036;-72
2023/01/10 07:00:27;;;;;;;17.88;5.03;;;6.00;99.90;;;;;;5078397;28;20059;-72
2023/01/10 07:02:55;;;;;;;24.45;6.55;;;6.00;99.90;;;;;;5088771;28;20115;-72
2023/01/10 07:05:21;;;;;;;19.23;5.90;;;5.90;99.90;;;;;;5083843;28;20044;-72
2023/01/10 07:07:47;;;;;;;19.98;5.57;;;6.00;99.90;;;;;;5087554;28;20047;-72
2023/01/10 07:10:12;;;;;;;19.38;5.93;;;5.90;99.90;;;;;;5085232;28;20048;-72
2023/01/10 07:12:38;;;;;;;21.02;5.55;;;6.00;99.90;;;;;;5080103;28;20040;-72
2023/01/10 07:15:05;;;;;;;19.27;5.53;;;6.00;99.90;;;;;;5083190;28;21119;-71
2023/01/10 07:17:30;;;;;;;24.90;5.25;;;6.00;99.90;;;;;;5085617;28;20048;-72
2023/01/10 07:19:56;;;;;;;22.33;5.20;;;6.00;99.90;;;;;;5087417;28;20203;-72
2023/01/10 07:22:22;;;;;;;23.02;5.10;;;6.00;99.90;;;;;;5089365;28;20072;-72
2023/01/10 07:24:48;;;;;;;23.77;5.80;;;6.00;99.90;;;;;;5087056;28;20040;-72
2023/01/10 07:27:14;;;;;;;25.48;5.95;;;6.00;99.90;;;;;;5089545;28;20347;-72
2023/01/10 07:29:39;;;;;;;25.48;5.45;;;6.00;99.90;;;;;;5081009;28;20093;-71
2023/01/10 07:32:05;;;;;;;25.70;5.85;;;6.00;99.90;;;;;;5085507;28;20113;-71
2023/01/10 07:34:31;;;;;;;25.77;6.03;;;6.00;99.90;;;;;;5080662;28;20040;-72
2023/01/10 07:36:56;;;;;;;26.20;6.15;;;6.00;99.90;;;;;;5081388;28;20044;-71
2023/01/10 07:39:22;;;;;;;19.05;5.45;;;6.10;99.90;;;;;;5096123;28;20399;-71
2023/01/10 07:41:49;;;;;;;19.38;5.35;;;6.00;99.90;;;;;;5090233;28;20044;-71
2023/01/10 07:44:15;;;;;;;25.57;8.07;;;6.10;99.90;;;;;;5102918;28;20048;-71
2023/01/10 07:46:41;;;;;;;29.33;7.20;;;6.10;99.90;;;;;;5085163;28;20375;-71
2023/01/10 07:49:07;;;;;;;22.35;7.38;;;6.10;99.90;;;;;;5091435;28;20040;-71
2023/01/10 07:51:34;;;;;;;25.73;6.38;;;6.00;99.90;;;;;;5101427;28;20592;-71
2023/01/10 07:54:00;;;;;;;19.83;6.00;;;6.00;99.90;;;;;;5092291;28;20514;-71
2023/01/10 07:56:26;;;;;;;24.17;6.95;;;6.00;99.90;;;;;;5096123;28;20044;-71
2023/01/10 07:58:52;;;;;;;24.42;7.22;;;6.00;99.90;;;;;;5086680;28;20063;-71
2023/01/10 08:01:17;;;;;;;23.08;6.40;;;6.00;99.90;;;;;;5084753;28;20040;-71
2023/01/10 08:03:43;;;;;;;26.58;7.10;;;6.00;99.90;;;;;;5081973;28;20483;-71
2023/01/10 08:06:10;;;;;;;23.00;6.80;;;6.00;99.90;;;;;;5090381;28;20483;-71
2023/01/10 08:08:36;;;;;;;24.67;6.67;;;6.00;99.90;;;;;;5101987;28;20130;-71
2023/01/10 08:11:02;;;;;;;26.88;7.38;;;6.00;99.90;;;;;;5088548;28;20314;-71
2023/01/10 08:13:30;;;;;;;29.38;6.93;;;6.00;99.90;;;;;;5086843;28;20056;-71
2023/01/10 08:15:56;;;;;;;25.80;7.25;;;5.90;99.90;;;;;;5098525;28;20036;-71
2023/01/10 08:18:23;;;;;;;24.48;6.68;;;5.90;99.90;;;;;;5090330;28;20158;-78
2023/01/10 08:20:53;;;;;;;29.75;7.82;;;6.00;99.90;;;;;;5095691;28;20127;-72
2023/01/10 08:23:20;;;;;;;27.25;7.25;;;5.90;99.90;;;;;;5109579;28;20039;-72
2023/01/10 08:25:46;;;;;;;25.83;6.85;;;5.90;99.90;;;;;;5085714;28;20112;-71
2023/01/10 08:28:12;;;;;;;25.00;6.72;;;6.00;99.90;;;;;;5076366;28;20114;-72
2023/01/10 08:30:39;;;;;;;27.75;8.13;;;5.90;99.90;;;;;;5090991;28;20510;-73
2023/01/10 08:33:05;;;;;;;20.33;6.13;;;6.00;99.90;;;;;;5086375;28;20578;-72
2023/01/10 08:35:39;;;;;;;27.80;6.72;;;6.00;99.90;;;;;;5090468;28;20052;-72
2023/01/10 08:38:05;;;;;;;29.35;8.00;;;6.00;99.90;;;;;;5089156;28;20036;-73
2023/01/10 08:40:31;;;;;;;28.05;7.63;;;6.00;99.90;;;;;;5088737;28;20119;-74
2023/01/10 08:43:01;;;;;;;24.98;7.25;;;6.00;99.90;;;;;;5091807;28;20051;-73
2023/01/10 08:45:27;;;;;;;30.33;7.43;;;6.10;99.90;;;;;;5087147;28;20123;-71
2023/01/10 08:47:53;;;;;;;25.10;6.68;;;6.10;99.90;;;;;;5088053;28;20123;-72
2023/01/10 08:50:19;;;;;;;28.45;7.78;;;6.10;99.90;;;;;;5085244;28;20047;-72
2023/01/10 08:52:45;;;;;;;25.92;7.05;;;6.10;99.90;;;;;;5088787;28;20406;-73
2023/01/10 08:55:11;;;;;;;27.02;7.68;;;6.10;99.90;;;;;;5091407;28;20051;-72
2023/01/10 08:57:36;;;;;;;23.02;7.13;;;6.10;99.90;;;;;;5088010;28;20032;-73
2023/01/10 09:00:04;;;;;;;27.30;7.82;;;6.10;99.90;;;;;;5089234;28;20032;-73
2023/01/10 09:02:29;;;;;;;28.30;8.20;;;6.20;99.90;;;;;;5088193;28;20064;-74
2023/01/10 09:04:55;;;;;;;26.20;8.13;;;6.20;99.90;;;;;;5090197;28;20102;-70
2023/01/10 09:07:21;;;;;;;23.23;7.72;;;6.20;99.90;;;;;;5091545;28;20399;-70
2023/01/10 09:09:46;;;;;;;26.85;7.30;;;6.20;99.90;;;;;;5091693;28;20044;-73
2023/01/10 09:14:57;;;;;;;28.13;8.10;;;6.30;99.90;;;;;;5091517;28;20048;-74
2023/01/10 09:17:22;;;;;;;24.30;7.80;;;6.30;99.90;;;;;;5090523;28;20135;-72
2023/01/10 09:19:48;;;;;;;28.90;9.27;;;6.40;99.90;;;;;;5088782;28;20043;-73
2023/01/10 09:22:14;;;;;;;26.80;8.55;;;6.40;99.90;;;;;;5091030;28;20063;-74
2023/01/10 09:24:42;;;;;;;28.10;9.40;;;6.40;99.90;;;;;;5092356;28;20379;-74
2023/01/10 09:27:09;;;;;;;30.08;10.25;;;6.30;99.90;;;;;;5088651;28;20048;-74
2023/01/10 09:29:34;;;;;;;30.25;10.15;;;6.40;99.90;;;;;;5084737;28;20101;-73
2023/01/10 09:32:00;;;;;;;26.40;9.52;;;6.40;99.90;;;;;;5102770;28;20040;-75
2023/01/10 09:34:25;;;;;;;33.83;10.70;;;6.40;99.90;;;;;;5089144;28;20040;-77
2023/01/10 09:36:52;;;;;;;33.75;10.48;;;6.50;99.90;;;;;;5087334;28;20041;-75
2023/01/10 09:39:20;;;;;;;32.15;8.75;;;6.50;99.90;;;;;;5091645;28;20054;-75
2023/01/10 09:41:46;;;;;;;32.72;10.13;;;6.50;99.90;;;;;;5089095;28;20097;-74
2023/01/10 09:44:34;;;;;;;26.77;10.27;;;6.60;99.90;;;;;;5090550;28;20086;-73
2023/01/10 09:47:09;;;;;;;28.08;11.35;;;6.60;99.90;;;;;;5089595;28;20115;-73
2023/01/10 09:49:51;;;;;;;30.50;11.68;;;6.60;99.90;;;;;;5107025;28;20079;-74
2023/01/10 09:52:30;;;;;;;31.83;10.30;;;6.60;99.90;;;;;;5089311;28;20082;-74
2023/01/10 09:55:02;;;;;;;33.30;9.75;;;6.60;99.90;;;;;;5075274;28;20043;-74
2023/01/10 09:57:28;;;;;;;28.20;8.82;;;6.70;99.90;;;;;;5086678;28;20036;-73
2023/01/10 09:59:54;;;;;;;31.27;9.52;;;6.70;99.90;;;;;;5089745;28;20475;-73
2023/01/10 10:02:19;;;;;;;35.17;10.70;;;6.70;99.90;;;;;;5090310;28;20039;-72
2023/01/10 10:05:09;;;;;;;32.00;10.25;;;6.70;99.90;;;;;;5088502;28;20044;-71
2023/01/10 10:07:35;;;;;;;35.45;9.95;;;6.70;99.90;;;;;;5086170;28;20051;-72
2023/01/10 10:10:00;;;;;;;33.05;10.38;;;6.80;99.90;;;;;;5087241;28;20036;-72
2023/01/10 10:13:04;;;;;;;27.02;10.70;;;6.80;99.90;;;;;;5085372;28;21529;-71
2023/01/10 10:15:52;;;;;;;28.65;10.75;;;6.80;99.90;;;;;;5085262;28;20051;-70
2023/01/10 10:18:28;;;;;;;37.30;10.77;;;6.90;99.90;;;;;;5089552;28;20046;-72
2023/01/10 10:21:20;;;;;;;33.87;10.30;;;6.90;99.90;;;;;;5091064;28;20221;-70
2023/01/10 10:23:58;;;;;;;32.85;9.98;;;6.90;99.90;;;;;;5078772;28;20044;-72
2023/01/10 10:26:34;;;;;;;32.70;10.02;;;6.90;99.90;;;;;;5088375;28;20077;-73
2023/01/10 10:29:12;;;;;;;32.00;11.00;;;7.00;99.90;;;;;;5083869;28;20040;-70
2023/01/10 10:31:52;;;;;;;34.33;10.70;;;7.00;99.90;;;;;;5087939;28;20403;-72
2023/01/10 10:34:42;;;;;;;35.95;10.80;;;7.00;99.90;;;;;;5091202;28;20048;-78
2023/01/10 10:37:32;;;;;;;31.40;10.43;;;7.00;99.90;;;;;;5091332;28;20035;-74
2023/01/10 10:40:16;;;;;;;32.83;10.10;;;7.10;99.90;;;;;;5103764;28;20391;-73
2023/01/10 10:42:46;;;;;;;31.00;11.00;;;7.10;99.90;;;;;;5087455;28;20040;-74
2023/01/10 10:45:40;;;;;;;30.80;11.80;;;7.10;99.90;;;;;;5090954;28;20040;-73
2023/01/10 10:48:26;;;;;;;30.38;11.27;;;7.10;99.90;;;;;;5091543;28;20501;-74
2023/01/10 10:51:00;;;;;;;27.88;10.23;;;7.20;99.90;;;;;;5084807;28;20039;-72
2023/01/10 10:53:27;;;;;;;33.70;10.60;;;7.20;99.90;;;;;;5088837;28;20062;-73
2023/01/10 10:55:55;;;;;;;27.52;9.25;;;7.20;99.90;;;;;;5088023;28;20075;-73
2023/01/10 10:58:21;;;;;;;32.03;11.27;;;7.10;99.90;;;;;;5085268;28;20123;-73
2023/01/10 11:00:46;;;;;;;30.73;11.75;;;7.20;99.90;;;;;;5090979;28;20047;-75
2023/01/10 11:03:28;;;;;;;36.22;10.60;;;7.20;99.90;;;;;;5086094;28;20452;-74
2023/01/10 11:05:55;;;;;;;33.25;11.02;;;7.20;99.90;;;;;;5085879;28;20505;-74
2023/01/10 11:08:22;;;;;;;32.13;11.95;;;7.20;99.90;;;;;;5087023;28;20056;-73
2023/01/10 11:11:01;;;;;;;31.65;9.73;;;7.20;99.90;;;;;;5082330;28;20435;-73
2023/01/10 11:13:32;;;;;;;32.92;11.07;;;7.30;99.90;;;;;;5082220;28;20044;-71
2023/01/10 11:16:03;;;;;;;31.52;11.57;;;7.30;99.90;;;;;;5089447;28;20483;-72
2023/01/10 11:18:29;;;;;;;29.80;9.77;;;7.30;99.90;;;;;;5082756;28;20167;-72
2023/01/10 11:21:00;;;;;;;28.85;9.13;;;7.30;99.90;;;;;;5088141;28;20131;-72
2023/01/10 11:23:55;;;;;;;33.95;10.48;;;7.20;99.90;;;;;;5087443;28;20487;-73
2023/01/10 11:26:33;;;;;;;31.08;10.60;;;7.30;99.90;;;;;;5080387;28;20048;-73
2023/01/10 11:29:07;;;;;;;33.72;11.63;;;7.30;99.90;;;;;;5089692;28;20040;-77
2023/01/10 11:31:35;;;;;;;31.45;9.73;;;7.30;99.90;;;;;;5084895;28;20052;-74
2023/01/10 11:34:05;;;;;;;25.85;7.93;;;7.40;99.90;;;;;;5084122;28;20543;-73
2023/01/10 11:36:52;;;;;;;30.40;8.00;;;7.40;99.90;;;;;;5087322;28;20048;-70
2023/01/10 11:39:17;;;;;;;29.25;7.75;;;7.40;99.90;;;;;;5084849;28;21594;-71
2023/01/10 11:41:43;;;;;;;32.00;7.85;;;7.40;99.90;;;;;;5084577;28;20047;-70
2023/01/10 11:44:17;;;;;;;24.42;8.40;;;7.30;99.90;;;;;;5086608;28;20071;-73
2023/01/10 11:46:44;;;;;;;27.17;8.13;;;7.40;99.90;;;;;;5088610;28;20048;-74
2023/01/10 11:49:19;;;;;;;30.10;9.25;;;7.40;99.90;;;;;;5087543;28;20088;-72
2023/01/10 11:51:51;;;;;;;34.45;10.23;;;7.50;99.90;;;;;;5087234;28;20096;-76
2023/01/10 11:54:27;;;;;;;25.88;7.60;;;7.50;99.90;;;;;;5078518;28;20060;-76
2023/01/10 11:56:58;;;;;;;27.00;8.68;;;7.40;99.90;;;;;;5078048;28;20106;-78
2023/01/10 11:59:25;;;;;;;30.73;8.85;;;7.40;99.90;;;;;;5088171;28;20063;-78
2023/01/10 12:02:12;;;;;;;30.30;9.57;;;7.50;99.90;;;;;;5090357;28;20056;-77
2023/01/10 12:04:45;;;;;;;31.90;10.05;;;7.40;99.90;;;;;;5088258;28;20052;-78
2023/01/10 12:07:12;;;;;;;27.75;8.10;;;7.50;99.90;;;;;;5092393;28;20047;-74
2023/01/10 12:09:41;;;;;;;28.10;8.90;;;7.40;99.90;;;;;;5091061;28;20035;-76
2023/01/10 12:12:24;;;;;;;29.00;8.02;;;7.50;99.90;;;;;;5092688;28;20414;-75
2023/01/10 12:14:51;;;;;;;29.60;7.97;;;7.50;99.90;;;;;;5075037;28;20505;-71
2023/01/10 12:17:29;;;;;;;33.78;10.75;;;7.40;99.90;;;;;;5092456;28;20044;-71
2023/01/10 12:19:59;;;;;;;23.35;7.25;;;7.50;99.90;;;;;;5091263;28;20459;-71
2023/01/10 12:22:51;;;;;;;30.52;6.90;;;7.50;99.90;;;;;;5091504;28;20046;-71
2023/01/10 12:25:31;;;;;;;25.92;7.07;;;7.50;99.90;;;;;;5094266;28;20044;-71
2023/01/10 12:27:59;;;;;;;22.52;6.85;;;7.50;99.90;;;;;;5093058;28;20127;-71
2023/01/10 12:30:48;;;;;;;;;;;7.50;99.90;;;;;;5092933;28;20120;-71
2023/01/10 12:33:31;;;;;;;31.30;6.47;;;7.40;99.90;;;;;;5092959;28;19920;-71
2023/01/10 12:36:15;;;;;;;29.65;7.03;;;7.40;99.90;;;;;;5092265;28;20502;-71
2023/01/10 12:39:13;;;;;;;24.30;9.57;;;7.40;99.90;;;;;;5091666;28;20044;-71
2023/01/10 12:44:44;;;;;;;27.00;7.18;;;7.30;99.90;;;;;;5092998;28;20083;-71
2023/01/10 12:47:34;;;;;;;31.02;11.05;;;7.40;99.90;;;;;;5092654;28;20518;-71
2023/01/10 12:50:04;;;;;;;34.63;14.82;;;7.30;99.90;;;;;;5088533;28;20067;-71
2023/01/10 12:53:04;;;;;;;45.03;28.27;;;7.30;99.90;;;;;;5093393;28;20048;-71
2023/01/10 12:55:44;;;;;;;29.63;8.05;;;7.20;99.90;;;;;;5079718;28;20056;-71
2023/01/10 12:58:39;;;;;;;34.45;8.98;;;7.20;99.90;;;;;;5092082;28;20387;-71
2023/01/10 13:01:06;;;;;;;31.48;9.18;;;7.30;99.90;;;;;;5092333;28;20055;-71
2023/01/10 13:03:33;;;;;;;;;;;7.30;99.90;;;;;;5091899;28;20054;-71
2023/01/10 13:05:59;;;;;;;26.23;7.13;;;7.20;99.90;;;;;;5092173;28;19931;-71
2023/01/10 13:08:28;;;;;;;26.70;8.27;;;7.20;99.90;;;;;;5091279;28;20067;-71
2023/01/10 13:10:57;;;;;;;30.88;7.82;;;7.30;99.90;;;;;;5093016;28;20039;-71
2023/01/10 13:13:33;;;;;;;29.25;7.82;;;7.30;99.90;;;;;;5088745;28;20294;-71
2023/01/10 13:16:13;;;;;;;28.48;8.48;;;7.30;99.90;;;;;;5090839;28;20048;-71